Stunt Ranch Reserve, Santa Monica Mtns, California Weather observations

Data are for 10 minute period ending at time listed.
 Day   Time   Solar   Ave.   Ave.  Ave.  Vector  Max.   Baro.   Total    
  of    of     Rad.   Air    Rel.  Wind   Wind   Wind  Press.  Precip.   
Year   Day            Temp.  Hum.  Speed  Dir.   Gust                    
2016   (PST)  Kw/m2    F      %     mph   deg.    mph    mb.     in.     
-------------------------------------------------------------------------
 126    7:10   0.12   56.3    76    1.0   302     2.3   966.5    0.00 
 126    7:20   0.16   57.1    74    1.0   319     2.9   966.5    0.00 
 126    7:30   0.16   57.5    73    1.5   296     2.9   966.5    0.00 
 126    7:40   0.14   58.2    71    0.9   328     2.5   966.8    0.00 
 126    7:50   0.20   58.2    69    1.5    24     2.9   966.8    0.00 
 126    8:00   0.25   58.3    69    1.9   348     4.2   966.5    0.00 
 126    8:10   0.20   59.3    66    1.7   334     3.5   966.5    0.00 
 126    8:20   0.18   59.6    64    2.3   282     4.5   966.5    0.00 
 126    8:30   0.21   59.6    64    1.8   262     6.1   966.5    0.00 
 126    8:40   0.24   60.7    63    1.8   286     4.8   966.5    0.00 
 126    8:50   0.26   61.2    63    2.0   274     5.2   966.5    0.00 
 126    9:00   0.34   60.5    64    1.1   107     2.8   966.5    0.00 
 126    9:10   0.37   61.1    62    2.9   111     7.4   966.5    0.00 
 126    9:20   0.35   60.7    61    2.9   185     9.1   966.5    0.00 
 126    9:30   0.39   60.9    61    2.4   192     7.1   966.5    0.00 
 126    9:40   0.36   61.1    62    5.1   168    10.0   966.5    0.00 
 126    9:50   0.32   60.2    63    3.7   180     7.5   966.5    0.00 
 126   10:00   0.42   60.4    62    5.1   162     9.7   966.5    0.00 
 126   10:10   0.50   61.4    58    5.5   157    11.0   966.5    0.00 
 126   10:20   0.51   62.0    57    4.6   158    10.2   966.8    0.00 
 126   10:30   0.48   62.4    56    4.3   164     9.3   966.8    0.00 
 126   10:40   0.49   62.2    56    4.2   173     9.8   966.8    0.00 
 126   10:50   0.52   62.6    55    3.7   207    10.4   966.8    0.00 
 126   11:00   0.57   62.7    55    4.5   198     9.4   966.8    0.00 
 126   11:10   0.62   62.9    57    2.9   212     8.3   966.8    0.00 
 126   11:20   0.52   63.7    57    3.5   122    12.9   966.8    0.00 
 126   11:30   0.56   62.8    59    4.3   136    11.9   966.8    0.00 
 126   11:40   0.52   61.9    60    3.6   334    10.8   966.8    0.00 
 126   11:50   0.43   62.4    59    2.8   280     7.5   966.8    0.00 
 126   12:00   0.46   62.5    57    2.7   250     9.1   966.8    0.00 
 126   12:10   0.40   63.6    55    2.6   347     9.0   966.5    0.00 
 126   12:20   0.38   61.9    59    5.5   225    11.7   966.8    0.00 
 126   12:30   0.38   61.7    60    4.0   232    10.0   966.5    0.00 
 126   12:40   0.36   61.8    58    2.9   226     7.2   966.5    0.00 
 126   12:50   0.41   62.0    56    3.8   196     7.7   966.5    0.00 
 126   13:00   0.41   62.1    56    4.5   152    10.4   966.5    0.00 
 126   13:10   0.41   62.6    56    2.2   240     8.7   966.5    0.00 
 126   13:20   0.47   63.6    54    2.0   334     5.0   966.5    0.00 
 126   13:30   0.46   65.2    52    2.2   218     9.3   966.5    0.00 
 126   13:40   0.62   64.1    52    3.1   192     9.6   966.1    0.00 
 126   13:50   0.68   64.4    52    3.3   240    10.6   966.1    0.00 
 126   14:00   0.38   63.8    55    4.9   220    10.3   966.1    0.00 
 126   14:10   0.52   62.7    57    4.5   208    10.2   965.8    0.00 
 126   14:20   0.55   63.7    55    5.1   197    12.4   965.8    0.00 
 126   14:30   0.43   62.7    59    4.1   202    13.7   965.8    0.00 
 126   14:40   0.49   61.7    61    5.1   154    13.8   965.8    0.00 
 126   14:50   0.41   61.7    62    5.8   196    12.7   965.8    0.00 
 126   15:00   0.32   60.9    64    4.6   210    13.0   965.5    0.00 
 126   15:10   0.31   60.1    67    5.0   207    11.8   965.5    0.00 
 126   15:20   0.53   60.6    65    4.9   222    11.5   965.5    0.00 
 126   15:30   0.74   62.4    62    4.1   219    12.2   965.5    0.00 
 126   15:40   0.72   63.3    57    4.7   204    11.5   965.5    0.00 
 126   15:50   0.55   63.0    56    5.8   195    13.4   965.1    0.00 
 126   16:00   0.68   61.8    60    5.0   184    12.1   965.1    0.00 
 126   16:10   0.29   61.5    61    6.1   223    16.1   965.1    0.00 
 126   16:20   0.25   59.5    64    5.8   177    13.9   965.1    0.00 
 126   16:30   0.18   58.7    65    5.2   202    11.0   965.1    0.00 
 126   16:40   0.41   59.9    61    3.1   188    10.4   965.1    0.00 
 126   16:50   0.39   61.2    57    5.2   238    11.7   964.8    0.00 
 126   17:00   0.33   61.0    60    3.8   219    13.8   964.8    0.00 
 126   17:10   0.11   59.8    62    4.5   214     9.9   964.8    0.00 
 126   17:20   0.09   58.4    65    3.4   212     8.1   965.1    0.00 
 126   17:30   0.08   57.7    66    4.5   215     9.3   965.1    0.00 
 126   17:40   0.06   57.5    65    2.7   213     6.9   964.8    0.00 
 126   17:50   0.05   57.2    64    2.5   242     9.3   964.8    0.00 
 126   18:00   0.05   57.1    64    1.1   341     3.1   964.8    0.00 
 126   18:10   0.03   56.9    66    1.1   350     4.5   964.8    0.00 
 126   18:20   0.03   56.2    67    1.6   268     3.9   964.8    0.00 
 126   18:30   0.02   56.0    67    1.4   249     3.9   964.8    0.00 
 126   18:40   0.01   56.0    66    1.9   275     6.2   964.8    0.00 
 126   18:50   0.00   56.0    68    2.0   241     5.5   964.8    0.00 
 126   19:00   0.00   56.0    71    1.3   288     4.2   964.8    0.00 
 126   19:10   0.00   55.9    71    1.8   285     4.0   964.8    0.00 
 126   19:20   0.00   55.8    70    1.1   231     4.9   964.8    0.00 
 126   19:30   0.00   55.8    68    1.1   288     3.7   965.1    0.00 
 126   19:40   0.00   55.8    68    0.6   218     3.2   965.1    0.00 
 126   19:50   0.00   55.6    67    1.0   251     3.4   965.1    0.00 
 126   20:00   0.00   55.4    70    1.8   243     3.4   965.1    0.00 
 126   20:10   0.00   54.8    72    2.2   187     4.5   965.1    0.00 
 126   20:20   0.00   54.2    76    3.0   170     5.1   965.1    0.00 
 126   20:30   0.00   53.0    81    3.0   159     4.9   965.1    0.00 
 126   20:40   0.00   52.6    82    3.3   200     5.9   965.5    0.00 
 126   20:50   0.00   53.1    80    2.6   210     3.8   965.5    0.00 
 126   21:00   0.00   53.5    78    2.8   198     4.6   965.5    0.00 
 126   21:10   0.00   53.9    77    1.9   203     4.7   965.5    0.00 
 126   21:20   0.00   54.1    77    1.3   232     3.7   965.5    0.00 
 126   21:30   0.00   54.1    78    0.8   197     1.8   965.8    0.00 
 126   21:40   0.00   54.0    79    1.7   193     2.7   965.8    0.00 
 126   21:50   0.00   53.9    79    0.4   224     1.5   965.8    0.00 
 126   22:00   0.00   54.1    79    0.6   202     1.8   965.5    0.00 
 126   22:10   0.00   54.0    79    1.7   215     2.9   965.5    0.00 
 126   22:20   0.00   53.8    77    1.7   212     2.4   965.5    0.00 
 126   22:30   0.00   53.3    78    1.6   228     3.0   965.5    0.00 
 126   22:40   0.00   52.7    78    1.7   228     2.9   965.5    0.00 
 126   22:50   0.00   52.3    79    0.5   203     1.6   965.5    0.00 
 126   23:00   0.00   52.1    79    1.9   201     2.7   965.5    0.00 
 126   23:10   0.00   51.5    80    1.7   221     2.4   965.1    0.00 
 126   23:20   0.00   51.1    81    1.8   226     2.7   965.1    0.00 
 126   23:30   0.00   51.0    81    2.3   214     3.3   965.1    0.00 
 126   23:40   0.00   51.0    80    2.5   210     3.4   965.1    0.00 
 126   23:50   0.00   50.7    80    2.3   218     3.6   964.8    0.00 
 127    0:00   0.00   50.6    81    1.2   210     3.0   964.8    0.00 
 127    0:10   0.00   50.2    82    0.9   238     1.7   964.8    0.00 
 127    0:20   0.00   50.4    82    1.2   217     2.6   964.4    0.00 
 127    0:30   0.00   50.2    83    1.9   194     4.6   964.4    0.00 
 127    0:40   0.00   50.4    83    3.0   202     4.5   964.4    0.00 
 127    0:50   0.00   50.5    83    0.9   243     2.1   964.4    0.00 
 127    1:00   0.00   50.1    84    0.8   236     2.0   964.4    0.00 
 127    1:10   0.00   50.6    84    0.0   211     1.0   964.4    0.00 
 127    1:20   0.00   51.1    83    0.2    74     0.9   964.4    0.00 
 127    1:30   0.00   51.2    82    0.2   230     1.0   964.1    0.00 
 127    1:40   0.00   51.6    82    1.1   219     2.7   964.1    0.00 
 127    1:50   0.00   52.0    81    1.5   205     2.3   964.1    0.00 
 127    2:00   0.00   52.2    81    1.7   194     2.7   964.1    0.00 
 127    2:10   0.00   52.2    82    1.1   224     2.0   964.1    0.00 
 127    2:20   0.00   52.2    82    0.5   241     1.2   963.8    0.00 
 127    2:30   0.00   52.2    82    1.6   205     2.8   963.8    0.00 
 127    2:40   0.00   52.4    83    1.6   220     2.3   963.8    0.00 
 127    2:50   0.00   52.7    82    1.3   188     1.9   963.8    0.00 
 127    3:00   0.00   52.6    82    2.4   146     3.7   963.8    0.00 
 127    3:10   0.00   52.3    83    2.6   187     3.5   963.4    0.00 
 127    3:20   0.00   52.6    83    2.7   190     3.5   963.4    0.00 
 127    3:30   0.00   52.7    82    1.5   244     2.3   963.4    0.00 
 127    3:40   0.00   52.4    83    1.9   243     3.1   963.4    0.00 
 127    3:50   0.00   52.2    83    0.2   231     1.2   963.4    0.00 
 127    4:00   0.00   51.9    83    0.4   244     1.8   963.4    0.00 
 127    4:10   0.00   51.1    85    1.2   258     2.0   963.8    0.00 
 127    4:20   0.00   51.1    84    1.9   193     3.0   963.8    0.00 
 127    4:30   0.00   51.5    84    1.9   215     2.8   963.8    0.00 
 127    4:40   0.00   51.7    84    1.7   207     2.5   963.8    0.00 
 127    4:50   0.00   51.7    85    0.5   237     2.0   964.1    0.00 
 127    5:00   0.00   51.8    85    0.2   246     0.7   964.1    0.00 
 127    5:10   0.00   51.8    86    0.7   261     1.4   964.1    0.00 
 127    5:20   0.01   52.1    86    0.5   218     1.3   964.4    0.00 
 127    5:30   0.01   52.2    86    0.7   244     1.2   964.4    0.00 
 127    5:40   0.02   52.4    86    0.8   251     1.5   964.4    0.00 
 127    5:50   0.04   52.6    85    0.2   248     1.2   964.8    0.00 
 127    6:00   0.07   52.9    85    1.1   145     3.2   964.8    0.00 
 127    6:10   0.10   53.4    85    3.5   141     4.8   964.8    0.00 
 127    6:20   0.10   53.5    84    3.1   131     4.5   964.8    0.00 
 127    6:30   0.11   54.6    81    1.6   106     2.7   964.8    0.00 
 127    6:40   0.19   55.7    77    1.4   114     3.1   964.8    0.00 
 127    6:50   0.16   56.7    73    1.7   102     3.1   964.8    0.00 
 127    7:00   0.21   56.6    73    1.7    63     3.7   964.8    0.00 

Return to Stunt Ranch Reserve graphs page.


Western Regional Climate Center,wrcc@dri.edu